createdAt,value
2022-08-02T00:00:58.539Z,1.30
2022-08-02T00:03:26.049Z,1.60
2022-08-02T00:05:54.041Z,1.45
2022-08-02T00:08:22.697Z,1.15
2022-08-02T00:10:50.569Z,1.00
2022-08-02T00:13:18.349Z,1.08
2022-08-02T00:15:45.889Z,1.00
2022-08-02T00:18:13.723Z,1.20
2022-08-02T00:20:41.358Z,1.10
2022-08-02T00:23:09.083Z,1.63
2022-08-02T00:25:36.647Z,2.13
2022-08-02T00:28:27.822Z,3.45
2022-08-02T00:30:58.066Z,2.45
2022-08-02T00:34:09.073Z,2.13
2022-08-02T00:36:14.848Z,2.22
2022-08-02T00:38:43.087Z,2.47
2022-08-02T00:41:17.193Z,2.25
2022-08-02T00:43:46.245Z,2.87
2022-08-02T00:46:16.006Z,2.40
2022-08-02T00:48:44.201Z,2.92
2022-08-02T00:51:13.196Z,2.35
2022-08-02T00:53:41.347Z,2.63
2022-08-02T00:56:09.073Z,2.35
2022-08-02T00:58:37.705Z,2.85
2022-08-02T01:01:05.221Z,2.15
2022-08-02T01:03:32.865Z,2.80
2022-08-02T01:06:15.143Z,2.45
2022-08-02T01:08:44.391Z,1.70
2022-08-02T01:11:12.090Z,1.67
2022-08-02T01:13:40.038Z,2.17
2022-08-02T01:16:21.321Z,2.22
2022-08-02T01:18:55.800Z,2.03
2022-08-02T01:21:45.914Z,2.35
2022-08-02T01:24:58.923Z,1.50
2022-08-02T01:28:05.706Z,1.60
2022-08-02T01:30:35.053Z,1.52
2022-08-02T01:33:05.701Z,1.58
2022-08-02T01:35:47.138Z,1.65
2022-08-02T01:38:41.249Z,1.95
2022-08-02T01:41:14.083Z,1.52
2022-08-02T01:43:44.837Z,1.50
2022-08-02T01:46:14.655Z,1.75
2022-08-02T01:48:44.564Z,1.50
2022-08-02T01:51:17.959Z,1.70
2022-08-02T01:53:50.664Z,1.63
2022-08-02T01:56:19.857Z,1.38
2022-08-02T01:58:49.427Z,1.55
2022-08-02T02:01:19.298Z,1.60
2022-08-02T02:03:49.112Z,1.70
2022-08-02T02:06:18.794Z,1.40
2022-08-02T02:08:46.536Z,1.42
2022-08-02T02:12:10.971Z,1.20
2022-08-02T02:14:04.195Z,1.60
2022-08-02T02:16:32.469Z,1.13
2022-08-02T02:19:03.583Z,1.40
2022-08-02T02:21:31.647Z,1.60
2022-08-02T02:24:00.151Z,0.90
2022-08-02T02:26:31.253Z,1.15
2022-08-02T02:29:03.152Z,1.13
2022-08-02T02:31:37.716Z,1.30
2022-08-02T02:34:17.828Z,1.30
2022-08-02T02:36:51.082Z,1.35
2022-08-02T02:39:22.954Z,1.20
2022-08-02T02:41:52.172Z,1.52
2022-08-02T02:44:21.988Z,1.17
2022-08-02T02:46:54.440Z,1.50
2022-08-02T02:49:23.652Z,1.42
2022-08-02T02:51:52.647Z,1.40
2022-08-02T02:54:33.212Z,1.02
2022-08-02T02:57:04.124Z,1.08
2022-08-02T02:59:34.659Z,1.27
2022-08-02T03:02:03.515Z,0.90
2022-08-02T03:10:02.907Z,1.00
2022-08-02T03:12:32.336Z,1.00
2022-08-02T03:15:04.874Z,1.17
2022-08-02T03:17:44.566Z,0.90
2022-08-02T03:20:18.856Z,1.00
2022-08-02T03:22:47.779Z,1.08
2022-08-02T03:25:17.256Z,0.85
2022-08-02T03:27:46.210Z,0.85
2022-08-02T03:30:15.132Z,0.93
2022-08-02T03:32:47.106Z,0.90
2022-08-02T03:35:22.901Z,0.90
2022-08-02T03:37:54.667Z,1.05
2022-08-02T03:40:22.916Z,1.25
2022-08-02T03:42:51.415Z,1.40
2022-08-02T03:45:20.382Z,1.70
2022-08-02T03:47:48.265Z,0.93
2022-08-02T03:50:16.064Z,0.90
2022-08-02T03:52:45.696Z,1.05
2022-08-02T03:55:14.442Z,1.10
2022-08-02T03:57:43.436Z,0.90
2022-08-02T04:00:20.651Z,0.70
2022-08-02T04:02:49.154Z,1.05
2022-08-02T04:05:18.957Z,0.98
2022-08-02T04:08:32.581Z,1.15
2022-08-02T04:10:57.680Z,1.17
2022-08-02T04:13:37.196Z,0.85
2022-08-02T04:16:44.082Z,1.13
2022-08-02T04:19:19.128Z,1.10
2022-08-02T04:21:51.599Z,1.20
2022-08-02T04:24:34.379Z,1.05
2022-08-02T04:27:19.191Z,0.95
2022-08-02T04:29:51.141Z,1.10
2022-08-02T04:32:19.655Z,0.80
2022-08-02T04:35:18.033Z,0.90
2022-08-02T04:37:37.699Z,1.00
2022-08-02T04:40:11.151Z,1.00
2022-08-02T04:42:40.891Z,1.25
2022-08-02T04:45:11.278Z,1.00
2022-08-02T04:48:02.357Z,0.90
2022-08-02T04:50:31.722Z,0.77
2022-08-02T04:52:59.449Z,0.90
2022-08-02T04:55:29.402Z,1.30
2022-08-02T04:58:04.038Z,1.27
2022-08-02T05:00:35.427Z,0.75
2022-08-02T05:03:03.040Z,1.02
2022-08-02T05:05:30.925Z,1.00
2022-08-02T05:07:59.108Z,1.20
2022-08-02T05:10:26.940Z,1.10
2022-08-02T05:12:54.777Z,1.00
2022-08-02T05:15:22.421Z,0.85
2022-08-02T05:17:50.093Z,1.10
2022-08-02T05:20:19.017Z,1.25
2022-08-02T05:22:47.275Z,0.80
2022-08-02T05:25:15.548Z,0.90
2022-08-02T05:27:43.116Z,1.00
2022-08-02T05:30:11.771Z,1.10
2022-08-02T05:32:48.558Z,1.02
2022-08-02T05:35:20.281Z,0.70
2022-08-02T05:37:49.119Z,0.90
2022-08-02T05:40:17.436Z,1.23
2022-08-02T05:42:54.472Z,0.70
2022-08-02T05:45:23.209Z,1.00
2022-08-02T05:47:51.254Z,1.20
2022-08-02T05:50:19.615Z,1.27
2022-08-02T05:53:04.806Z,0.98
2022-08-02T05:58:21.076Z,1.02
2022-08-02T06:00:50.904Z,1.10
2022-08-02T06:03:32.920Z,0.93
2022-08-02T06:06:05.875Z,1.10
2022-08-02T06:08:48.068Z,0.98
2022-08-02T06:11:22.934Z,1.15
2022-08-02T06:13:50.774Z,0.90
2022-08-02T06:16:32.499Z,1.15
2022-08-02T06:19:01.603Z,0.95
2022-08-02T06:22:31.972Z,1.13
2022-08-02T06:24:20.098Z,0.95
2022-08-02T06:26:52.992Z,1.00
2022-08-02T06:29:23.384Z,1.00
2022-08-02T06:31:54.214Z,1.20
2022-08-02T06:34:21.972Z,1.35
2022-08-02T06:37:12.752Z,0.85
2022-08-02T06:39:47.582Z,1.10
2022-08-02T06:42:27.664Z,0.90
2022-08-02T06:44:58.253Z,1.05
2022-08-02T06:47:26.937Z,0.98
2022-08-02T06:49:57.272Z,0.80
2022-08-02T06:52:31.470Z,1.15
2022-08-02T06:55:02.841Z,1.02
2022-08-02T06:57:31.331Z,0.90
2022-08-02T07:00:02.601Z,0.95
2022-08-02T07:02:31.601Z,0.80
2022-08-02T07:04:59.993Z,0.93
2022-08-02T07:07:28.462Z,1.00
2022-08-02T07:10:00.737Z,1.00
2022-08-02T07:12:31.167Z,1.25
2022-08-02T07:15:00.700Z,1.40
2022-08-02T07:17:29.517Z,1.27
2022-08-02T07:19:58.115Z,1.33
2022-08-02T07:22:27.515Z,1.23
2022-08-02T07:24:58.215Z,1.02
2022-08-02T07:27:26.981Z,1.00
2022-08-02T07:29:55.599Z,1.50
2022-08-02T07:32:27.067Z,0.90
2022-08-02T07:34:56.517Z,1.00
2022-08-02T07:37:53.238Z,0.90
2022-08-02T07:40:20.196Z,1.20
2022-08-02T07:42:52.520Z,2.30
2022-08-02T07:45:21.947Z,2.03
2022-08-02T07:47:50.161Z,2.00
2022-08-02T07:50:20.700Z,1.83
2022-08-02T07:52:49.695Z,2.45
2022-08-02T07:55:39.628Z,3.28
2022-08-02T07:58:10.834Z,2.30
2022-08-02T08:00:39.777Z,2.10
2022-08-02T08:03:07.142Z,2.33
2022-08-02T08:05:34.878Z,2.40
2022-08-02T08:08:02.547Z,2.45
2022-08-02T08:10:30.149Z,2.38
2022-08-02T08:12:57.785Z,2.25
2022-08-02T08:15:25.481Z,2.92
2022-08-02T08:17:53.711Z,2.58
2022-08-02T08:20:21.537Z,2.42
2022-08-02T08:22:50.488Z,2.70
2022-08-02T08:25:18.347Z,2.78
2022-08-02T08:27:52.385Z,2.20
2022-08-02T08:30:22.632Z,2.47
2022-08-02T08:32:50.588Z,2.22
2022-08-02T08:35:18.835Z,2.55
2022-08-02T08:37:46.781Z,2.47
2022-08-02T08:40:19.688Z,3.35
2022-08-02T08:42:47.960Z,2.47
2022-08-02T08:45:16.669Z,2.95
2022-08-02T08:47:45.220Z,1.90
2022-08-02T08:50:26.520Z,2.47
2022-08-02T08:53:07.229Z,2.28
2022-08-02T08:55:37.500Z,2.30
2022-08-02T08:58:06.652Z,2.47
2022-08-02T09:00:36.514Z,2.17
2022-08-02T09:03:08.927Z,2.30
2022-08-02T09:05:39.188Z,2.40
2022-08-02T09:08:07.838Z,2.40
2022-08-02T09:10:44.516Z,2.30
2022-08-02T09:13:37.713Z,2.58
2022-08-02T09:16:11.164Z,2.42
2022-08-02T09:18:47.792Z,2.03
2022-08-02T09:21:17.456Z,2.38
2022-08-02T09:23:50.242Z,1.77
2022-08-02T09:26:23.641Z,2.03
2022-08-02T09:29:02.221Z,1.83
2022-08-02T09:31:30.043Z,1.92
2022-08-02T09:34:00.483Z,2.17
2022-08-02T09:36:38.924Z,2.00
2022-08-02T09:39:11.187Z,2.20
2022-08-02T09:41:42.065Z,2.55
2022-08-02T09:44:16.142Z,2.13
2022-08-02T09:46:46.652Z,2.72
2022-08-02T09:49:18.034Z,2.90
2022-08-02T09:51:53.797Z,2.25
2022-08-02T09:54:29.022Z,2.30
2022-08-02T09:57:00.769Z,2.00
2022-08-02T09:59:30.188Z,2.20
2022-08-02T10:02:02.573Z,2.55
2022-08-02T10:04:34.051Z,2.20
2022-08-02T10:07:04.785Z,2.33
2022-08-02T10:09:34.065Z,1.92
2022-08-02T10:12:03.472Z,2.00
2022-08-02T10:14:35.545Z,1.75
2022-08-02T10:17:07.078Z,1.67
2022-08-02T10:20:02.962Z,1.67
2022-08-02T10:22:26.418Z,2.97
2022-08-02T10:24:54.708Z,2.28
2022-08-02T10:27:25.447Z,2.05
2022-08-02T10:29:58.212Z,1.48
2022-08-02T10:32:38.938Z,1.95
2022-08-02T10:35:19.606Z,2.10
2022-08-02T10:38:03.708Z,2.10
2022-08-02T10:40:49.550Z,1.90
2022-08-02T10:43:45.242Z,1.73
2022-08-02T10:46:36.902Z,1.75
2022-08-02T10:52:03.167Z,1.70
2022-08-02T10:54:43.735Z,1.50
2022-08-02T10:57:33.729Z,1.80
2022-08-02T11:00:26.005Z,1.92
2022-08-02T11:02:54.227Z,1.67
2022-08-02T11:05:42.987Z,2.05
2022-08-02T11:08:23.125Z,2.03
2022-08-02T11:10:50.818Z,1.60
2022-08-02T11:13:22.375Z,2.20
2022-08-02T11:16:11.217Z,1.80
2022-08-02T11:18:51.162Z,2.97
2022-08-02T11:21:26.213Z,2.47
2022-08-02T11:23:54.672Z,2.28
2022-08-02T11:26:31.745Z,2.30
2022-08-02T11:29:02.380Z,2.22
2022-08-02T11:31:39.457Z,3.13
2022-08-02T11:34:09.802Z,2.33
2022-08-02T11:36:52.363Z,2.25
2022-08-02T11:39:22.863Z,2.83
2022-08-02T11:41:57.458Z,2.30
2022-08-02T11:44:29.265Z,2.20
2022-08-02T11:47:00.446Z,2.53
2022-08-02T11:49:29.415Z,2.10
2022-08-02T11:52:07.062Z,2.20
2022-08-02T11:54:38.182Z,2.75
2022-08-02T11:57:20.216Z,2.35
2022-08-02T11:59:55.381Z,2.40
2022-08-02T12:02:31.871Z,3.35
2022-08-02T12:05:09.021Z,2.30
2022-08-02T12:07:45.874Z,2.13
2022-08-02T12:10:23.494Z,2.20
2022-08-02T12:12:54.398Z,1.92
2022-08-02T12:15:44.803Z,2.30
2022-08-02T12:18:40.266Z,1.98
2022-08-02T12:24:00.015Z,2.53
2022-08-02T12:26:30.326Z,2.13
2022-08-02T12:28:59.736Z,2.05
2022-08-02T12:31:57.382Z,2.22
2022-08-02T12:34:28.698Z,1.70
2022-08-02T12:37:10.636Z,2.08
2022-08-02T12:39:50.248Z,1.98
2022-08-02T12:42:17.732Z,1.70
2022-08-02T12:45:00.195Z,1.80
2022-08-02T12:47:35.849Z,1.85
2022-08-02T12:50:22.319Z,2.03
2022-08-02T12:52:51.164Z,1.60
2022-08-02T12:55:22.897Z,1.65
2022-08-02T12:58:02.800Z,1.70
2022-08-02T13:00:39.019Z,1.85
2022-08-02T13:04:08.959Z,1.52
2022-08-02T13:05:59.302Z,1.85
2022-08-02T13:08:35.571Z,1.50
2022-08-02T13:11:03.644Z,2.13
2022-08-02T13:13:31.294Z,1.80
2022-08-02T13:15:59.335Z,2.05
2022-08-02T13:18:26.987Z,1.70
2022-08-02T13:20:59.088Z,1.50
2022-08-02T13:23:54.403Z,1.65
2022-08-02T13:26:14.703Z,1.67
2022-08-02T13:28:43.130Z,1.30
2022-08-02T13:31:35.496Z,1.25
2022-08-02T13:33:58.471Z,1.60
2022-08-02T13:36:26.231Z,1.90
2022-08-02T13:38:53.817Z,1.40
2022-08-02T13:41:21.366Z,1.85
2022-08-02T13:43:52.644Z,1.67
2022-08-02T13:46:29.347Z,1.40
2022-08-02T13:48:57.538Z,1.77
2022-08-02T13:51:25.211Z,1.48
2022-08-02T13:53:52.976Z,1.80
2022-08-02T13:56:20.657Z,1.50
2022-08-02T13:59:54.630Z,1.50
2022-08-02T14:01:54.367Z,1.70
2022-08-02T14:04:21.860Z,1.60
2022-08-02T14:06:49.453Z,1.67
2022-08-02T14:09:17.389Z,1.50
2022-08-02T14:11:46.731Z,1.75
2022-08-02T14:14:16.984Z,1.58
2022-08-02T14:16:46.143Z,1.50
2022-08-02T14:19:16.518Z,2.47
2022-08-02T14:21:47.222Z,2.13
2022-08-02T14:24:17.414Z,1.83
2022-08-02T14:26:46.064Z,1.95
2022-08-02T14:29:15.206Z,2.00
2022-08-02T14:31:44.574Z,2.28
2022-08-02T14:34:14.339Z,2.30
2022-08-02T14:36:42.484Z,2.20
2022-08-02T14:39:10.922Z,2.17
2022-08-02T14:41:59.278Z,1.95
2022-08-02T14:44:26.197Z,2.67
2022-08-02T14:46:54.288Z,2.67
2022-08-02T14:49:25.163Z,2.45
2022-08-02T14:51:55.341Z,2.00
2022-08-02T14:54:29.987Z,2.15
2022-08-02T14:57:04.201Z,1.90
2022-08-02T14:59:31.858Z,2.30
2022-08-02T15:02:00.308Z,2.00
2022-08-02T15:04:28.674Z,1.80
2022-08-02T15:07:02.180Z,1.60
2022-08-02T15:09:30.364Z,1.73
2022-08-02T15:11:57.974Z,2.08
2022-08-02T15:14:32.939Z,1.58
2022-08-02T15:17:00.571Z,1.80
2022-08-02T15:19:55.965Z,1.48
2022-08-02T15:22:19.502Z,1.33
2022-08-02T15:24:48.211Z,1.70
2022-08-02T15:27:17.182Z,1.40
2022-08-02T15:29:47.140Z,1.55
2022-08-02T15:32:18.975Z,1.30
2022-08-02T15:34:47.653Z,1.10
2022-08-02T15:37:15.271Z,1.58
2022-08-02T15:39:42.889Z,1.90
2022-08-02T15:42:11.115Z,1.92
2022-08-02T15:44:38.786Z,1.77
2022-08-02T15:47:07.429Z,1.63
2022-08-02T15:49:39.314Z,2.13
2022-08-02T15:52:08.975Z,2.03
2022-08-02T15:54:36.535Z,1.55
2022-08-02T15:57:04.422Z,1.33
2022-08-02T15:59:31.865Z,1.60
2022-08-02T16:01:59.504Z,1.88
2022-08-02T16:04:27.267Z,2.00
2022-08-02T16:06:57.540Z,1.25
2022-08-02T16:09:32.014Z,1.48
2022-08-02T16:12:00.022Z,1.45
2022-08-02T16:14:27.666Z,1.45
2022-08-02T16:16:56.261Z,1.80
2022-08-02T16:19:46.152Z,1.42
2022-08-02T16:22:12.644Z,1.45
2022-08-02T16:24:40.681Z,1.73
2022-08-02T16:27:08.828Z,1.40
2022-08-02T16:29:37.584Z,1.50
2022-08-02T16:32:06.266Z,1.73
2022-08-02T16:34:50.803Z,1.55
2022-08-02T16:37:21.988Z,1.45
2022-08-02T16:39:49.595Z,1.60
2022-08-02T16:42:25.248Z,1.55
2022-08-02T16:44:54.910Z,1.63
2022-08-02T16:47:37.064Z,1.30
2022-08-02T16:50:11.124Z,1.30
2022-08-02T16:52:39.866Z,1.50
2022-08-02T16:55:10.939Z,1.35
2022-08-02T16:57:43.414Z,1.20
2022-08-02T17:00:15.380Z,1.57
2022-08-02T17:02:43.682Z,1.48
2022-08-02T17:05:14.419Z,1.35
2022-08-02T17:08:07.723Z,1.70
2022-08-02T17:10:34.318Z,1.38
2022-08-02T17:13:11.319Z,1.40
2022-08-02T17:16:07.972Z,1.30
2022-08-02T17:18:30.144Z,1.67
2022-08-02T17:20:58.330Z,1.33
2022-08-02T17:24:06.155Z,1.40
2022-08-02T17:26:13.765Z,1.40
2022-08-02T17:29:06.981Z,1.88
2022-08-02T17:31:42.472Z,1.73
2022-08-02T17:34:11.333Z,1.52
2022-08-02T17:36:38.926Z,1.92
2022-08-02T17:39:07.332Z,1.70
2022-08-02T17:41:37.825Z,1.33
2022-08-02T17:44:08.678Z,1.60
2022-08-02T17:46:37.182Z,1.30
2022-08-02T17:49:17.263Z,1.33
2022-08-02T17:52:47.709Z,1.80
2022-08-02T17:54:33.608Z,1.63
2022-08-02T17:57:01.294Z,1.35
2022-08-02T17:59:41.740Z,1.58
2022-08-02T18:02:11.233Z,1.77
2022-08-02T18:04:39.193Z,1.38
2022-08-02T18:07:09.840Z,1.38
2022-08-02T18:09:43.344Z,1.58
2022-08-02T18:12:14.948Z,1.75
2022-08-02T18:14:46.105Z,1.42
2022-08-02T18:17:17.947Z,1.17
2022-08-02T18:19:55.487Z,1.67
2022-08-02T18:22:27.289Z,1.70
2022-08-02T18:24:55.161Z,1.50
2022-08-02T18:27:23.260Z,1.40
2022-08-02T18:30:04.168Z,1.45
2022-08-02T18:33:55.896Z,1.42
2022-08-02T18:35:21.297Z,1.65
2022-08-02T18:37:56.926Z,1.42
2022-08-02T18:40:29.098Z,1.40
2022-08-02T18:42:57.802Z,1.42
2022-08-02T18:45:42.032Z,1.75
2022-08-02T18:48:17.424Z,1.95
2022-08-02T18:50:46.973Z,1.83
2022-08-02T18:53:16.788Z,1.40
2022-08-02T18:56:06.069Z,1.42
2022-08-02T18:58:35.320Z,1.80
2022-08-02T19:01:05.105Z,1.70
2022-08-02T19:03:37.018Z,2.10
2022-08-02T19:06:04.866Z,2.20
2022-08-02T19:08:35.308Z,1.75
2022-08-02T19:11:03.834Z,1.92
2022-08-02T19:13:31.595Z,1.77
2022-08-02T19:15:59.649Z,2.17
2022-08-02T19:18:30.187Z,1.65
2022-08-02T19:21:05.353Z,1.85
2022-08-02T19:23:33.884Z,1.85
2022-08-02T19:26:02.688Z,2.25
2022-08-02T19:28:31.491Z,1.67
2022-08-02T19:30:59.216Z,1.80
2022-08-02T19:34:06.249Z,1.67
2022-08-02T19:36:16.994Z,1.98
2022-08-02T19:38:45.819Z,1.73
2022-08-02T19:41:16.913Z,2.05
2022-08-02T19:44:25.529Z,1.80
2022-08-02T19:46:38.055Z,1.83
2022-08-02T19:49:20.096Z,1.73
2022-08-02T19:51:57.100Z,2.05
2022-08-02T19:54:35.912Z,1.95
2022-08-02T19:57:17.133Z,1.80
2022-08-02T19:59:47.480Z,2.42
2022-08-02T20:02:18.547Z,1.75
2022-08-02T20:04:50.350Z,2.60
2022-08-02T20:07:52.245Z,3.05
2022-08-02T20:10:10.827Z,2.33
2022-08-02T20:12:40.923Z,2.00
2022-08-02T20:15:14.808Z,2.75
2022-08-02T20:17:47.267Z,2.25
2022-08-02T20:20:15.589Z,2.47
2022-08-02T20:23:01.575Z,2.47
2022-08-02T20:25:54.183Z,2.20
2022-08-02T20:28:22.570Z,2.42
2022-08-02T20:30:50.352Z,1.77
2022-08-02T20:33:21.853Z,2.35
2022-08-02T20:35:53.258Z,2.40
2022-08-02T20:38:25.105Z,2.60
2022-08-02T20:40:58.086Z,2.70
2022-08-02T20:43:31.524Z,3.42
2022-08-02T20:46:03.528Z,2.75
2022-08-02T20:48:31.476Z,2.67
2022-08-02T20:50:59.603Z,2.80
2022-08-02T20:53:30.826Z,2.50
2022-08-02T20:55:58.617Z,2.67
2022-08-02T20:58:27.849Z,2.70
2022-08-02T21:00:59.742Z,2.75
2022-08-02T21:03:38.792Z,3.35
2022-08-02T21:06:15.185Z,3.42
2022-08-02T21:08:46.148Z,2.47
2022-08-02T21:11:14.527Z,2.60
2022-08-02T21:13:46.523Z,2.63
2022-08-02T21:16:18.463Z,2.67
2022-08-02T21:18:47.852Z,2.75
2022-08-02T21:21:16.495Z,2.72
2022-08-02T21:23:48.773Z,2.33
2022-08-02T21:26:19.674Z,2.70
2022-08-02T21:28:53.538Z,2.38
2022-08-02T21:31:21.694Z,3.22
2022-08-02T21:33:57.782Z,2.20
2022-08-02T21:36:33.775Z,2.72
2022-08-02T21:39:05.632Z,3.40
2022-08-02T21:41:46.348Z,2.65
2022-08-02T21:44:16.905Z,2.42
2022-08-02T21:46:50.670Z,3.20
2022-08-02T21:49:21.160Z,1.98
2022-08-02T21:52:08.923Z,2.92
2022-08-02T21:54:40.017Z,2.30
2022-08-02T21:57:15.206Z,2.25
2022-08-02T21:59:52.721Z,2.50
2022-08-02T22:02:29.469Z,2.28
2022-08-02T22:05:02.567Z,2.13
2022-08-02T22:10:18.529Z,2.40
2022-08-02T22:12:46.107Z,2.30
2022-08-02T22:15:15.011Z,2.28
2022-08-02T22:17:50.485Z,2.30
2022-08-02T22:20:21.397Z,2.20
2022-08-02T22:22:53.408Z,1.98
2022-08-02T22:25:26.928Z,2.45
2022-08-02T22:31:04.904Z,2.30
2022-08-02T22:34:00.241Z,2.17
2022-08-02T22:36:38.688Z,2.08
2022-08-02T22:39:19.175Z,2.35
2022-08-02T22:42:01.251Z,2.22
2022-08-02T22:44:30.227Z,2.47
2022-08-02T22:47:07.137Z,1.92
2022-08-02T22:49:38.226Z,2.35
2022-08-02T22:52:20.289Z,2.10
2022-08-02T22:54:49.157Z,2.85
2022-08-02T22:59:04.102Z,2.97
2022-08-02T22:59:04.975Z,3.22
2022-08-02T23:00:11.393Z,2.20
2022-08-02T23:02:38.987Z,2.40
2022-08-02T23:05:07.152Z,2.00
2022-08-02T23:07:38.838Z,2.25
2022-08-02T23:10:08.023Z,1.80
2022-08-02T23:12:35.684Z,2.08
2022-08-02T23:15:03.410Z,2.03
2022-08-02T23:17:49.746Z,2.30
2022-08-02T23:20:20.595Z,1.70
2022-08-02T23:22:48.044Z,2.22
2022-08-02T23:25:15.629Z,2.30
2022-08-02T23:27:50.502Z,2.95
2022-08-02T23:30:19.759Z,1.80
2022-08-02T23:32:47.666Z,2.22
2022-08-02T23:35:17.056Z,1.73
2022-08-02T23:37:59.739Z,2.22
2022-08-02T23:40:40.726Z,1.80
2022-08-02T23:43:14.071Z,1.67
2022-08-02T23:45:46.550Z,2.00
2022-08-02T23:48:14.626Z,2.03
2022-08-02T23:50:44.291Z,2.10
2022-08-02T23:53:11.932Z,2.17
2022-08-02T23:55:39.627Z,1.85
2022-08-02T23:58:06.986Z,2.50
